sensor_id;sensor_type;location;lat;lon;timestamp;pressure;altitude;pressure_sealevel;temperature;humidity
75298;BME280;63896;45.990;18.688;2023-03-14T00:00:58;100118.09;;;5.61;70.88
75298;BME280;63896;45.990;18.688;2023-03-14T00:04:04;100118.47;;;5.58;71.19
75298;BME280;63896;45.990;18.688;2023-03-14T00:07:06;100117.53;;;5.65;70.79
75298;BME280;63896;45.990;18.688;2023-03-14T00:10:12;100115.47;;;5.61;71.31
75298;BME280;63896;45.990;18.688;2023-03-14T00:13:16;100106.56;;;5.62;71.65
75298;BME280;63896;45.990;18.688;2023-03-14T00:16:21;100107.78;;;5.59;71.25
75298;BME280;63896;45.990;18.688;2023-03-14T00:19:24;100104.00;;;5.68;71.28
75298;BME280;63896;45.990;18.688;2023-03-14T00:22:27;100101.75;;;5.65;72.37
75298;BME280;63896;45.990;18.688;2023-03-14T00:25:30;100098.97;;;5.52;72.43
75298;BME280;63896;45.990;18.688;2023-03-14T00:28:33;100104.25;;;5.52;72.95
75298;BME280;63896;45.990;18.688;2023-03-14T00:31:36;100103.38;;;5.45;73.45
75298;BME280;63896;45.990;18.688;2023-03-14T00:34:39;100104.00;;;5.47;72.80
75298;BME280;63896;45.990;18.688;2023-03-14T00:37:42;100101.00;;;5.50;73.07
75298;BME280;63896;45.990;18.688;2023-03-14T00:40:45;100098.75;;;5.47;72.73
75298;BME280;63896;45.990;18.688;2023-03-14T00:43:48;100089.59;;;5.43;72.83
75298;BME280;63896;45.990;18.688;2023-03-14T00:46:51;100084.78;;;5.47;74.00
75298;BME280;63896;45.990;18.688;2023-03-14T00:49:54;100089.06;;;5.48;72.63
75298;BME280;63896;45.990;18.688;2023-03-14T00:52:57;100090.34;;;5.37;73.44
75298;BME280;63896;45.990;18.688;2023-03-14T00:56:05;100086.47;;;5.33;73.99
75298;BME280;63896;45.990;18.688;2023-03-14T00:59:09;100086.72;;;5.38;74.74
75298;BME280;63896;45.990;18.688;2023-03-14T01:02:12;100078.00;;;5.38;73.33
75298;BME280;63896;45.990;18.688;2023-03-14T01:05:15;100075.59;;;5.36;74.23
75298;BME280;63896;45.990;18.688;2023-03-14T01:08:17;100075.31;;;5.31;73.79
75298;BME280;63896;45.990;18.688;2023-03-14T01:11:29;100074.13;;;5.34;73.67
75298;BME280;63896;45.990;18.688;2023-03-14T01:14:33;100075.19;;;5.39;73.85
75298;BME280;63896;45.990;18.688;2023-03-14T01:17:36;100077.84;;;5.39;73.93
75298;BME280;63896;45.990;18.688;2023-03-14T01:20:40;100062.78;;;5.33;73.39
75298;BME280;63896;45.990;18.688;2023-03-14T01:23:44;100060.78;;;5.35;73.77
75298;BME280;63896;45.990;18.688;2023-03-14T01:26:46;100051.09;;;5.36;74.96
75298;BME280;63896;45.990;18.688;2023-03-14T01:29:49;100043.72;;;5.24;74.63
75298;BME280;63896;45.990;18.688;2023-03-14T01:32:53;100037.06;;;5.28;74.19
75298;BME280;63896;45.990;18.688;2023-03-14T01:35:56;100041.56;;;5.35;73.62
75298;BME280;63896;45.990;18.688;2023-03-14T01:38:59;100043.38;;;5.34;74.01
75298;BME280;63896;45.990;18.688;2023-03-14T01:42:03;100045.06;;;5.42;74.35
75298;BME280;63896;45.990;18.688;2023-03-14T01:55:29;100027.38;;;5.57;74.84
75298;BME280;63896;45.990;18.688;2023-03-14T01:58:32;100019.47;;;5.57;74.68
75298;BME280;63896;45.990;18.688;2023-03-14T02:01:38;100018.38;;;5.72;73.49
75298;BME280;63896;45.990;18.688;2023-03-14T02:04:43;100014.75;;;5.73;74.04
75298;BME280;63896;45.990;18.688;2023-03-14T02:07:56;100019.84;;;5.75;75.00
75298;BME280;63896;45.990;18.688;2023-03-14T02:11:07;100015.69;;;5.87;74.16
75298;BME280;63896;45.990;18.688;2023-03-14T02:14:33;100018.00;;;6.03;72.65
75298;BME280;63896;45.990;18.688;2023-03-14T02:18:03;100010.38;;;6.15;72.33
75298;BME280;63896;45.990;18.688;2023-03-14T02:25:14;99998.03;;;6.15;72.04
75298;BME280;63896;45.990;18.688;2023-03-14T02:28:20;99986.94;;;6.27;71.74
75298;BME280;63896;45.990;18.688;2023-03-14T02:31:26;99979.69;;;6.42;71.19
75298;BME280;63896;45.990;18.688;2023-03-14T02:34:29;99984.63;;;6.58;70.09
75298;BME280;63896;45.990;18.688;2023-03-14T02:37:53;99992.34;;;6.59;69.41
75298;BME280;63896;45.990;18.688;2023-03-14T02:40:59;100001.00;;;6.47;70.59
75298;BME280;63896;45.990;18.688;2023-03-14T02:44:04;99999.59;;;6.44;70.65
75298;BME280;63896;45.990;18.688;2023-03-14T02:47:08;99994.09;;;6.46;71.07
75298;BME280;63896;45.990;18.688;2023-03-14T02:50:18;99981.53;;;6.41;71.31
75298;BME280;63896;45.990;18.688;2023-03-14T02:53:32;99981.31;;;6.36;71.13
75298;BME280;63896;45.990;18.688;2023-03-14T02:56:39;99976.03;;;6.36;71.84
75298;BME280;63896;45.990;18.688;2023-03-14T02:59:45;99966.56;;;6.48;70.74
75298;BME280;63896;45.990;18.688;2023-03-14T03:02:52;99967.63;;;6.67;69.68
75298;BME280;63896;45.990;18.688;2023-03-14T03:05:56;99964.59;;;6.63;70.34
75298;BME280;63896;45.990;18.688;2023-03-14T03:09:00;99963.38;;;6.72;69.68
75298;BME280;63896;45.990;18.688;2023-03-14T03:12:03;99965.59;;;6.69;69.56
75298;BME280;63896;45.990;18.688;2023-03-14T03:15:07;99950.19;;;6.59;70.22
75298;BME280;63896;45.990;18.688;2023-03-14T03:18:12;99951.59;;;6.62;70.50
75298;BME280;63896;45.990;18.688;2023-03-14T03:21:17;99948.53;;;6.58;69.93
75298;BME280;63896;45.990;18.688;2023-03-14T03:24:21;99946.06;;;6.44;70.53
75298;BME280;63896;45.990;18.688;2023-03-14T03:27:24;99942.03;;;6.48;70.81
75298;BME280;63896;45.990;18.688;2023-03-14T03:30:28;99935.72;;;6.49;70.67
75298;BME280;63896;45.990;18.688;2023-03-14T03:33:31;99936.72;;;6.35;71.79
75298;BME280;63896;45.990;18.688;2023-03-14T03:36:34;99935.50;;;6.37;71.20
75298;BME280;63896;45.990;18.688;2023-03-14T03:39:37;99926.75;;;6.23;71.69
75298;BME280;63896;45.990;18.688;2023-03-14T03:42:40;99922.09;;;6.26;71.29
75298;BME280;63896;45.990;18.688;2023-03-14T03:45:44;99910.78;;;6.32;71.31
75298;BME280;63896;45.990;18.688;2023-03-14T03:48:47;99918.91;;;6.37;71.02
75298;BME280;63896;45.990;18.688;2023-03-14T03:51:50;99909.53;;;6.28;71.18
75298;BME280;63896;45.990;18.688;2023-03-14T03:54:54;99916.81;;;6.26;71.68
75298;BME280;63896;45.990;18.688;2023-03-14T03:57:57;99906.28;;;6.26;71.38
75298;BME280;63896;45.990;18.688;2023-03-14T04:01:01;99904.69;;;6.38;70.45
75298;BME280;63896;45.990;18.688;2023-03-14T04:04:04;99900.06;;;6.46;70.27
75298;BME280;63896;45.990;18.688;2023-03-14T04:07:08;99900.69;;;6.48;70.22
75298;BME280;63896;45.990;18.688;2023-03-14T04:10:12;99885.25;;;6.45;70.30
75298;BME280;63896;45.990;18.688;2023-03-14T04:13:21;99889.94;;;6.50;69.93
75298;BME280;63896;45.990;18.688;2023-03-14T04:16:27;99880.22;;;6.50;70.30
75298;BME280;63896;45.990;18.688;2023-03-14T04:19:36;99874.13;;;6.37;71.05
75298;BME280;63896;45.990;18.688;2023-03-14T04:22:40;99871.66;;;6.35;70.78
75298;BME280;63896;45.990;18.688;2023-03-14T04:25:46;99876.53;;;6.38;70.52
75298;BME280;63896;45.990;18.688;2023-03-14T04:28:49;99862.34;;;6.39;70.01
75298;BME280;63896;45.990;18.688;2023-03-14T04:31:54;99861.53;;;6.39;70.02
75298;BME280;63896;45.990;18.688;2023-03-14T04:34:57;99864.22;;;6.58;68.90
75298;BME280;63896;45.990;18.688;2023-03-14T04:38:00;99857.72;;;6.74;68.48
75298;BME280;63896;45.990;18.688;2023-03-14T04:41:05;99858.75;;;6.66;68.70
75298;BME280;63896;45.990;18.688;2023-03-14T04:44:10;99852.44;;;6.61;69.04
75298;BME280;63896;45.990;18.688;2023-03-14T04:47:13;99851.06;;;6.72;68.14
75298;BME280;63896;45.990;18.688;2023-03-14T04:50:16;99839.06;;;6.69;67.87
75298;BME280;63896;45.990;18.688;2023-03-14T04:53:21;99829.13;;;6.64;68.95
75298;BME280;63896;45.990;18.688;2023-03-14T04:56:26;99848.59;;;6.70;68.40
75298;BME280;63896;45.990;18.688;2023-03-14T04:59:31;99844.97;;;6.78;67.71
75298;BME280;63896;45.990;18.688;2023-03-14T05:02:42;99841.91;;;6.74;67.93
75298;BME280;63896;45.990;18.688;2023-03-14T05:06:08;99845.97;;;6.83;67.09
75298;BME280;63896;45.990;18.688;2023-03-14T05:09:37;99855.91;;;6.88;67.44
75298;BME280;63896;45.990;18.688;2023-03-14T05:12:45;99847.41;;;6.86;67.85
75298;BME280;63896;45.990;18.688;2023-03-14T05:16:26;99847.78;;;6.89;67.38
75298;BME280;63896;45.990;18.688;2023-03-14T05:19:38;99836.25;;;6.90;66.89
75298;BME280;63896;45.990;18.688;2023-03-14T05:23:03;99847.78;;;6.96;66.63
75298;BME280;63896;45.990;18.688;2023-03-14T05:26:24;99849.19;;;6.92;67.22
75298;BME280;63896;45.990;18.688;2023-03-14T05:29:34;99837.25;;;6.96;67.64
75298;BME280;63896;45.990;18.688;2023-03-14T05:32:56;99838.66;;;6.92;67.34
75298;BME280;63896;45.990;18.688;2023-03-14T05:36:18;99830.94;;;6.84;68.45
75298;BME280;63896;45.990;18.688;2023-03-14T05:39:44;99831.56;;;6.92;66.98
75298;BME280;63896;45.990;18.688;2023-03-14T05:43:07;99818.56;;;7.04;67.30
75298;BME280;63896;45.990;18.688;2023-03-14T05:46:36;99817.75;;;7.03;66.67
75298;BME280;63896;45.990;18.688;2023-03-14T05:49:57;99820.41;;;7.10;65.98
75298;BME280;63896;45.990;18.688;2023-03-14T05:53:29;99827.28;;;7.17;66.21
75298;BME280;63896;45.990;18.688;2023-03-14T05:56:49;99820.78;;;7.20;65.83
75298;BME280;63896;45.990;18.688;2023-03-14T06:00:11;99827.06;;;7.32;65.19
75298;BME280;63896;45.990;18.688;2023-03-14T06:03:15;99831.50;;;7.45;64.86
75298;BME280;63896;45.990;18.688;2023-03-14T06:06:21;99833.28;;;7.51;65.08
75298;BME280;63896;45.990;18.688;2023-03-14T06:09:24;99821.94;;;7.44;64.83
75298;BME280;63896;45.990;18.688;2023-03-14T06:12:31;99820.25;;;7.62;64.14
75298;BME280;63896;45.990;18.688;2023-03-14T06:15:34;99816.53;;;7.83;63.24
75298;BME280;63896;45.990;18.688;2023-03-14T06:18:38;99820.75;;;7.91;63.16
75298;BME280;63896;45.990;18.688;2023-03-14T06:21:43;99825.72;;;8.12;62.83
75298;BME280;63896;45.990;18.688;2023-03-14T06:24:46;99814.72;;;8.15;62.90
75298;BME280;63896;45.990;18.688;2023-03-14T06:27:51;99806.13;;;8.26;62.67
75298;BME280;63896;45.990;18.688;2023-03-14T06:30:55;99811.25;;;8.52;62.13
75298;BME280;63896;45.990;18.688;2023-03-14T06:33:58;99811.13;;;8.66;61.50
75298;BME280;63896;45.990;18.688;2023-03-14T06:37:04;99811.31;;;8.71;61.09
75298;BME280;63896;45.990;18.688;2023-03-14T06:40:10;99819.91;;;8.91;61.03
75298;BME280;63896;45.990;18.688;2023-03-14T06:43:34;99820.94;;;9.08;60.38
75298;BME280;63896;45.990;18.688;2023-03-14T06:46:37;99816.78;;;9.19;59.33
75298;BME280;63896;45.990;18.688;2023-03-14T06:49:40;99828.88;;;9.08;60.00
75298;BME280;63896;45.990;18.688;2023-03-14T06:52:43;99818.63;;;9.18;59.56
75298;BME280;63896;45.990;18.688;2023-03-14T06:55:55;99816.63;;;9.32;59.33
75298;BME280;63896;45.990;18.688;2023-03-14T06:59:00;99820.78;;;9.46;59.11
75298;BME280;63896;45.990;18.688;2023-03-14T07:02:10;99822.22;;;9.78;57.86
75298;BME280;63896;45.990;18.688;2023-03-14T07:05:14;99818.09;;;10.30;56.05
75298;BME280;63896;45.990;18.688;2023-03-14T07:08:18;99810.94;;;10.95;54.63
75298;BME280;63896;45.990;18.688;2023-03-14T07:11:23;99814.38;;;11.94;52.32
75298;BME280;63896;45.990;18.688;2023-03-14T07:14:27;99805.81;;;14.29;46.47
75298;BME280;63896;45.990;18.688;2023-03-14T07:17:30;99803.31;;;15.18;43.70
75298;BME280;63896;45.990;18.688;2023-03-14T07:20:33;99794.31;;;15.91;41.61
75298;BME280;63896;45.990;18.688;2023-03-14T07:23:38;99793.38;;;16.98;39.55
75298;BME280;63896;45.990;18.688;2023-03-14T07:26:42;99791.38;;;17.39;37.07
75298;BME280;63896;45.990;18.688;2023-03-14T07:29:46;99789.84;;;18.75;34.32
75298;BME280;63896;45.990;18.688;2023-03-14T07:32:49;99783.69;;;19.51;34.49
75298;BME280;63896;45.990;18.688;2023-03-14T07:35:53;99776.59;;;20.16;33.96
75298;BME280;63896;45.990;18.688;2023-03-14T07:38:56;99771.78;;;21.29;31.67
75298;BME280;63896;45.990;18.688;2023-03-14T07:42:17;99766.84;;;21.72;30.59
75298;BME280;63896;45.990;18.688;2023-03-14T07:45:38;99766.50;;;22.59;28.65
75298;BME280;63896;45.990;18.688;2023-03-14T07:48:44;99761.97;;;22.10;28.24
75298;BME280;63896;45.990;18.688;2023-03-14T07:51:48;99751.25;;;22.85;27.65
75298;BME280;63896;45.990;18.688;2023-03-14T07:54:51;99754.03;;;24.15;26.36
75298;BME280;63896;45.990;18.688;2023-03-14T07:57:54;99746.16;;;24.48;25.15
75298;BME280;63896;45.990;18.688;2023-03-14T08:01:01;99751.31;;;24.24;24.51
75298;BME280;63896;45.990;18.688;2023-03-14T08:04:05;99747.94;;;23.27;26.44
75298;BME280;63896;45.990;18.688;2023-03-14T08:07:10;99752.13;;;20.82;30.18
75298;BME280;63896;45.990;18.688;2023-03-14T08:10:15;99754.41;;;18.97;33.74
75298;BME280;63896;45.990;18.688;2023-03-14T08:13:24;99749.03;;;20.06;32.54
75298;BME280;63896;45.990;18.688;2023-03-14T08:16:30;99741.59;;;22.48;28.47
75298;BME280;63896;45.990;18.688;2023-03-14T08:19:33;99735.69;;;24.21;25.85
75298;BME280;63896;45.990;18.688;2023-03-14T08:22:35;99735.41;;;25.24;24.38
75298;BME280;63896;45.990;18.688;2023-03-14T08:25:38;99721.09;;;25.15;24.21
75298;BME280;63896;45.990;18.688;2023-03-14T08:28:41;99716.84;;;26.71;22.33
75298;BME280;63896;45.990;18.688;2023-03-14T08:31:44;99716.84;;;25.64;23.25
75298;BME280;63896;45.990;18.688;2023-03-14T08:34:48;99712.94;;;26.93;21.89
75298;BME280;63896;45.990;18.688;2023-03-14T08:37:51;99716.81;;;27.65;21.33
75298;BME280;63896;45.990;18.688;2023-03-14T08:40:56;99706.25;;;28.03;20.84
75298;BME280;63896;45.990;18.688;2023-03-14T08:44:00;99700.38;;;26.56;21.53
75298;BME280;63896;45.990;18.688;2023-03-14T08:47:03;99702.38;;;24.76;24.24
75298;BME280;63896;45.990;18.688;2023-03-14T08:50:06;99705.97;;;23.47;25.95
75298;BME280;63896;45.990;18.688;2023-03-14T08:53:12;99700.38;;;22.43;28.19
75298;BME280;63896;45.990;18.688;2023-03-14T08:56:15;99698.25;;;21.73;29.41
75298;BME280;63896;45.990;18.688;2023-03-14T08:59:18;99686.38;;;21.60;30.02
75298;BME280;63896;45.990;18.688;2023-03-14T09:02:23;99689.16;;;20.27;31.47
75298;BME280;63896;45.990;18.688;2023-03-14T09:05:26;99678.41;;;19.34;33.74
75298;BME280;63896;45.990;18.688;2023-03-14T09:08:29;99661.34;;;23.53;27.84
75298;BME280;63896;45.990;18.688;2023-03-14T09:11:32;99663.44;;;23.82;27.41
75298;BME280;63896;45.990;18.688;2023-03-14T09:14:35;99663.72;;;24.06;26.89
75298;BME280;63896;45.990;18.688;2023-03-14T09:17:38;99651.56;;;24.93;25.19
75298;BME280;63896;45.990;18.688;2023-03-14T09:20:42;99646.13;;;24.93;25.06
75298;BME280;63896;45.990;18.688;2023-03-14T09:23:46;99636.66;;;24.61;25.10
75298;BME280;63896;45.990;18.688;2023-03-14T09:26:49;99628.38;;;23.77;27.21
75298;BME280;63896;45.990;18.688;2023-03-14T09:29:52;99619.41;;;23.25;27.38
75298;BME280;63896;45.990;18.688;2023-03-14T09:32:55;99622.19;;;21.93;29.55
75298;BME280;63896;45.990;18.688;2023-03-14T09:35:59;99613.56;;;23.66;28.29
75298;BME280;63896;45.990;18.688;2023-03-14T09:39:02;99608.31;;;23.78;27.63
75298;BME280;63896;45.990;18.688;2023-03-14T09:42:10;99607.13;;;24.68;26.77
75298;BME280;63896;45.990;18.688;2023-03-14T09:48:32;99603.63;;;23.01;28.54
75298;BME280;63896;45.990;18.688;2023-03-14T09:51:36;99610.53;;;21.70;30.87
75298;BME280;63896;45.990;18.688;2023-03-14T09:55:01;99601.72;;;22.01;30.62
75298;BME280;63896;45.990;18.688;2023-03-14T09:58:12;99607.66;;;22.11;30.65
75298;BME280;63896;45.990;18.688;2023-03-14T10:01:18;99611.91;;;21.81;31.07
75298;BME280;63896;45.990;18.688;2023-03-14T10:04:23;99613.00;;;20.68;33.02
75298;BME280;63896;45.990;18.688;2023-03-14T10:07:29;99603.72;;;20.60;33.13
75298;BME280;63896;45.990;18.688;2023-03-14T10:10:34;99588.38;;;22.66;30.29
75298;BME280;63896;45.990;18.688;2023-03-14T10:13:47;99575.94;;;23.30;28.95
75298;BME280;63896;45.990;18.688;2023-03-14T10:16:51;99570.41;;;23.44;28.99
75298;BME280;63896;45.990;18.688;2023-03-14T10:19:57;99552.94;;;24.89;27.21
75298;BME280;63896;45.990;18.688;2023-03-14T10:23:05;99549.69;;;26.03;25.27
75298;BME280;63896;45.990;18.688;2023-03-14T10:26:16;99526.94;;;27.17;23.62
75298;BME280;63896;45.990;18.688;2023-03-14T10:29:21;99528.59;;;28.20;22.51
75298;BME280;63896;45.990;18.688;2023-03-14T10:32:33;99519.38;;;28.91;21.21
75298;BME280;63896;45.990;18.688;2023-03-14T10:35:37;99514.75;;;28.76;21.26
75298;BME280;63896;45.990;18.688;2023-03-14T10:38:40;99492.84;;;30.89;19.27
75298;BME280;63896;45.990;18.688;2023-03-14T10:41:48;99489.56;;;32.17;17.57
75298;BME280;63896;45.990;18.688;2023-03-14T10:45:15;99487.25;;;32.19;17.43
75298;BME280;63896;45.990;18.688;2023-03-14T10:48:35;99486.63;;;33.09;16.50
75298;BME280;63896;45.990;18.688;2023-03-14T10:51:39;99473.31;;;32.45;17.50
75298;BME280;63896;45.990;18.688;2023-03-14T10:54:48;99462.91;;;32.18;17.09
75298;BME280;63896;45.990;18.688;2023-03-14T10:57:55;99446.53;;;31.84;17.11
75298;BME280;63896;45.990;18.688;2023-03-14T11:07:42;99423.81;;;31.10;18.25
75298;BME280;63896;45.990;18.688;2023-03-14T11:10:48;99411.56;;;29.88;19.02
75298;BME280;63896;45.990;18.688;2023-03-14T11:23:45;99425.19;;;31.63;17.37
75298;BME280;63896;45.990;18.688;2023-03-14T11:37:07;99400.13;;;31.65;17.09
75298;BME280;63896;45.990;18.688;2023-03-14T11:40:18;99399.13;;;33.35;15.99
75298;BME280;63896;45.990;18.688;2023-03-14T11:43:40;99393.97;;;33.16;16.13
75298;BME280;63896;45.990;18.688;2023-03-14T11:50:23;99376.31;;;33.21;15.30
75298;BME280;63896;45.990;18.688;2023-03-14T11:53:54;99363.72;;;32.26;15.73
75298;BME280;63896;45.990;18.688;2023-03-14T11:57:19;99353.88;;;32.18;15.72
75298;BME280;63896;45.990;18.688;2023-03-14T12:00:26;99344.72;;;32.00;16.27
75298;BME280;63896;45.990;18.688;2023-03-14T12:03:42;99340.94;;;31.64;16.86
75298;BME280;63896;45.990;18.688;2023-03-14T12:06:50;99326.94;;;31.32;17.46
75298;BME280;63896;45.990;18.688;2023-03-14T12:09:53;99329.19;;;32.22;16.90
75298;BME280;63896;45.990;18.688;2023-03-14T12:12:58;99312.56;;;31.97;16.06
75298;BME280;63896;45.990;18.688;2023-03-14T12:19:29;99302.75;;;31.96;16.16
75298;BME280;63896;45.990;18.688;2023-03-14T12:22:35;99284.47;;;30.75;16.34
75298;BME280;63896;45.990;18.688;2023-03-14T12:25:44;99288.59;;;30.58;17.42
75298;BME280;63896;45.990;18.688;2023-03-14T12:29:09;99280.44;;;30.62;17.21
75298;BME280;63896;45.990;18.688;2023-03-14T12:32:23;99278.41;;;31.91;15.81
75298;BME280;63896;45.990;18.688;2023-03-14T12:35:43;99263.00;;;32.48;14.97
75298;BME280;63896;45.990;18.688;2023-03-14T12:39:05;99265.69;;;32.30;15.60
75298;BME280;63896;45.990;18.688;2023-03-14T12:45:33;99276.28;;;29.14;18.21
75298;BME280;63896;45.990;18.688;2023-03-14T12:48:39;99261.09;;;29.88;17.79
75298;BME280;63896;45.990;18.688;2023-03-14T12:51:42;99261.00;;;31.62;15.86
75298;BME280;63896;45.990;18.688;2023-03-14T12:58:21;99257.53;;;31.72;15.15
75298;BME280;63896;45.990;18.688;2023-03-14T13:01:33;99243.19;;;32.00;15.29
75298;BME280;63896;45.990;18.688;2023-03-14T13:05:12;99243.75;;;32.48;14.59
75298;BME280;63896;45.990;18.688;2023-03-14T13:08:09;99236.06;;;31.30;15.52
75298;BME280;63896;45.990;18.688;2023-03-14T13:11:15;99235.81;;;32.18;15.02
75298;BME280;63896;45.990;18.688;2023-03-14T13:14:18;99238.53;;;31.46;15.98
75298;BME280;63896;45.990;18.688;2023-03-14T13:17:40;99226.25;;;31.84;15.39
75298;BME280;63896;45.990;18.688;2023-03-14T13:20:50;99227.78;;;32.96;13.97
75298;BME280;63896;45.990;18.688;2023-03-14T13:24:05;99216.03;;;33.31;14.21
75298;BME280;63896;45.990;18.688;2023-03-14T13:27:17;99219.03;;;29.21;17.97
75298;BME280;63896;45.990;18.688;2023-03-14T13:30:28;99222.81;;;27.56;19.61
75298;BME280;63896;45.990;18.688;2023-03-14T13:33:33;99229.59;;;25.88;21.86
75298;BME280;63896;45.990;18.688;2023-03-14T13:36:37;99236.97;;;24.04;22.73
75298;BME280;63896;45.990;18.688;2023-03-14T13:39:40;99229.75;;;23.66;24.12
75298;BME280;63896;45.990;18.688;2023-03-14T13:42:43;99225.34;;;23.53;24.41
75298;BME280;63896;45.990;18.688;2023-03-14T13:49:05;99225.75;;;23.05;25.54
75298;BME280;63896;45.990;18.688;2023-03-14T13:52:36;99223.13;;;23.17;25.50
75298;BME280;63896;45.990;18.688;2023-03-14T13:55:40;99217.09;;;23.50;26.15
75298;BME280;63896;45.990;18.688;2023-03-14T13:58:43;99213.38;;;24.25;25.19
75298;BME280;63896;45.990;18.688;2023-03-14T14:01:46;99206.13;;;25.43;23.75
75298;BME280;63896;45.990;18.688;2023-03-14T14:04:50;99201.38;;;24.26;24.38
75298;BME280;63896;45.990;18.688;2023-03-14T14:07:53;99190.88;;;23.33;25.85
75298;BME280;63896;45.990;18.688;2023-03-14T14:10:59;99187.31;;;23.20;25.65
75298;BME280;63896;45.990;18.688;2023-03-14T14:14:06;99183.31;;;22.89;26.70
75298;BME280;63896;45.990;18.688;2023-03-14T14:17:17;99181.00;;;22.70;28.02
75298;BME280;63896;45.990;18.688;2023-03-14T14:20:34;99179.50;;;22.00;29.29
75298;BME280;63896;45.990;18.688;2023-03-14T14:23:37;99173.75;;;22.27;28.58
75298;BME280;63896;45.990;18.688;2023-03-14T14:26:54;99169.31;;;22.23;28.57
75298;BME280;63896;45.990;18.688;2023-03-14T14:33:20;99159.59;;;21.79;29.51
75298;BME280;63896;45.990;18.688;2023-03-14T14:36:38;99152.47;;;21.83;29.88
75298;BME280;63896;45.990;18.688;2023-03-14T14:39:42;99152.91;;;21.59;30.60
75298;BME280;63896;45.990;18.688;2023-03-14T14:42:45;99141.84;;;21.95;29.92
75298;BME280;63896;45.990;18.688;2023-03-14T14:45:51;99146.13;;;21.96;30.13
75298;BME280;63896;45.990;18.688;2023-03-14T14:48:56;99146.13;;;22.05;30.63
75298;BME280;63896;45.990;18.688;2023-03-14T14:52:03;99136.59;;;21.81;31.21
75298;BME280;63896;45.990;18.688;2023-03-14T14:55:18;99139.44;;;21.59;31.96
75298;BME280;63896;45.990;18.688;2023-03-14T14:58:27;99126.75;;;21.77;31.43
75298;BME280;63896;45.990;18.688;2023-03-14T15:01:38;99131.16;;;21.47;31.39
75298;BME280;63896;45.990;18.688;2023-03-14T15:04:44;99125.78;;;21.64;32.06
75298;BME280;63896;45.990;18.688;2023-03-14T15:07:47;99119.13;;;21.53;32.74
75298;BME280;63896;45.990;18.688;2023-03-14T15:10:50;99118.44;;;21.22;34.15
75298;BME280;63896;45.990;18.688;2023-03-14T15:13:53;99111.41;;;21.04;34.01
75298;BME280;63896;45.990;18.688;2023-03-14T15:16:57;99113.09;;;20.91;34.04
75298;BME280;63896;45.990;18.688;2023-03-14T15:19:59;99110.75;;;20.98;33.68
75298;BME280;63896;45.990;18.688;2023-03-14T15:23:08;99106.06;;;20.73;34.16
75298;BME280;63896;45.990;18.688;2023-03-14T15:26:15;99107.66;;;20.34;34.99
75298;BME280;63896;45.990;18.688;2023-03-14T15:29:18;99107.56;;;20.26;34.72
75298;BME280;63896;45.990;18.688;2023-03-14T15:32:21;99105.78;;;20.21;35.13
75298;BME280;63896;45.990;18.688;2023-03-14T15:35:24;99107.09;;;20.02;34.83
75298;BME280;63896;45.990;18.688;2023-03-14T15:38:27;99109.88;;;19.88;35.13
75298;BME280;63896;45.990;18.688;2023-03-14T15:41:30;99106.03;;;19.80;35.04
75298;BME280;63896;45.990;18.688;2023-03-14T15:44:33;99105.88;;;19.63;35.48
75298;BME280;63896;45.990;18.688;2023-03-14T15:47:36;99105.25;;;19.66;35.69
75298;BME280;63896;45.990;18.688;2023-03-14T15:50:40;99106.50;;;19.60;36.70
75298;BME280;63896;45.990;18.688;2023-03-14T15:53:43;99095.75;;;19.46;36.19
75298;BME280;63896;45.990;18.688;2023-03-14T15:56:46;99104.13;;;19.31;37.07
75298;BME280;63896;45.990;18.688;2023-03-14T15:59:49;99099.09;;;19.16;38.34
75298;BME280;63896;45.990;18.688;2023-03-14T16:02:52;99096.13;;;19.04;39.36
75298;BME280;63896;45.990;18.688;2023-03-14T16:05:55;99098.44;;;18.83;40.06
75298;BME280;63896;45.990;18.688;2023-03-14T16:08:58;99096.63;;;18.65;39.81
75298;BME280;63896;45.990;18.688;2023-03-14T16:12:02;99106.97;;;18.44;38.90
75298;BME280;63896;45.990;18.688;2023-03-14T16:15:08;99101.06;;;18.29;39.57
75298;BME280;63896;45.990;18.688;2023-03-14T16:18:11;99094.69;;;18.11;39.25
75298;BME280;63896;45.990;18.688;2023-03-14T16:21:23;99097.25;;;18.02;37.86
75298;BME280;63896;45.990;18.688;2023-03-14T16:24:27;99099.78;;;17.94;38.76
75298;BME280;63896;45.990;18.688;2023-03-14T16:27:30;99091.13;;;17.83;40.12
75298;BME280;63896;45.990;18.688;2023-03-14T16:30:33;99098.00;;;17.71;39.55
75298;BME280;63896;45.990;18.688;2023-03-14T16:33:37;99100.09;;;17.55;41.12
75298;BME280;63896;45.990;18.688;2023-03-14T16:36:40;99094.53;;;17.51;40.68
75298;BME280;63896;45.990;18.688;2023-03-14T16:39:43;99099.47;;;17.44;40.55
75298;BME280;63896;45.990;18.688;2023-03-14T16:43:06;99107.94;;;17.33;40.65
75298;BME280;63896;45.990;18.688;2023-03-14T16:46:18;99106.69;;;17.25;41.06
75298;BME280;63896;45.990;18.688;2023-03-14T16:49:26;99109.59;;;17.10;42.04
75298;BME280;63896;45.990;18.688;2023-03-14T16:52:29;99113.94;;;17.06;42.65
75298;BME280;63896;45.990;18.688;2023-03-14T16:55:32;99117.25;;;16.98;42.84
75298;BME280;63896;45.990;18.688;2023-03-14T16:58:35;99109.84;;;16.90;43.16
75298;BME280;63896;45.990;18.688;2023-03-14T17:01:38;99110.25;;;16.78;43.59
75298;BME280;63896;45.990;18.688;2023-03-14T17:04:42;99123.00;;;16.62;44.08
75298;BME280;63896;45.990;18.688;2023-03-14T17:07:45;99115.31;;;16.51;44.97
75298;BME280;63896;45.990;18.688;2023-03-14T17:10:52;99118.88;;;16.41;45.27
75298;BME280;63896;45.990;18.688;2023-03-14T17:13:55;99113.69;;;16.26;46.32
75298;BME280;63896;45.990;18.688;2023-03-14T17:16:58;99124.78;;;16.14;46.06
75298;BME280;63896;45.990;18.688;2023-03-14T17:20:06;99131.81;;;16.05;47.19
75298;BME280;63896;45.990;18.688;2023-03-14T17:23:11;99132.66;;;16.01;47.15
75298;BME280;63896;45.990;18.688;2023-03-14T17:26:14;99134.66;;;15.85;47.49